Accueil
METAR-TAF:

METAR-TAF

Aéroports :

Desert Rock Airport

Mercury, Nevada, États-Unis

latitude: 36-37-14N, longitude: 116-01-40W, altitude: 1007 m

Observation

Le bulletin a été fait il y a 30 minutes, à 21:05 UTC
Vent 7 kt de ouest
Température 9°C
Humidité 87%
Pression 1000 hPa
Visibilité: 16.1 km
Nuages épars à une hauteur de 1600 ft
Nuages fragmentés à une hauteur de 2400 ft
Ciel couvert à une hauteur de 6000 ft
pluie faible

METAR: KDRA 202105Z AUTO 28007KT 10SM -RA SCT016 BKN024 OVC060 09/07 A2953 RMK AO2 RAB2058 P0000 T00890067

Heure: 13:35 (21:35 UTC)


TAF: absent

Observations et prévisions météorologiques de plus de 4000 aéroports (messages METAR et TAF).

Les stations disponibles sont représentées par des disques jaunes et rouges sur la carte.

Passer la souris dessus pour voir le nom de la station.

Cliquer dessus pour voir les observations et prévisions météorologiques.

Pour changer de carte: cliquez sur les boutons verts avec une croix noire pour zoomer, sur le bouton vert avec un tiret pour effectuer un zoom arrière, ou sur les flèches vertes pour les cartes adjacentes.


METAR-TAF: